sensor_id;sensor_type;location;lat;lon;timestamp;P1;durP1;ratioP1;P2;durP2;ratioP2
20142;SDS011;10509;46.476;7.134;2022-09-09T00:00:47;1.53;;;1.00;;
20142;SDS011;10509;46.476;7.134;2022-09-09T00:09:23;1.30;;;0.63;;
20142;SDS011;10509;46.476;7.134;2022-09-09T00:14:55;3.30;;;1.00;;
20142;SDS011;10509;46.476;7.134;2022-09-09T00:17:03;1.97;;;0.80;;
20142;SDS011;10509;46.476;7.134;2022-09-09T00:27:01;2.60;;;1.30;;
20142;SDS011;10509;46.476;7.134;2022-09-09T00:29:39;1.53;;;0.80;;
20142;SDS011;10509;46.476;7.134;2022-09-09T00:32:12;2.67;;;0.70;;
20142;SDS011;10509;46.476;7.134;2022-09-09T00:34:46;1.90;;;0.60;;
20142;SDS011;10509;46.476;7.134;2022-09-09T00:37:12;1.40;;;0.60;;
20142;SDS011;10509;46.476;7.134;2022-09-09T00:39:42;2.30;;;0.80;;
20142;SDS011;10509;46.476;7.134;2022-09-09T00:44:36;2.83;;;0.83;;
20142;SDS011;10509;46.476;7.134;2022-09-09T00:47:23;1.47;;;0.70;;
20142;SDS011;10509;46.476;7.134;2022-09-09T00:54:57;1.90;;;0.90;;
20142;SDS011;10509;46.476;7.134;2022-09-09T00:57:31;0.80;;;0.60;;
20142;SDS011;10509;46.476;7.134;2022-09-09T01:06:02;1.73;;;0.70;;
20142;SDS011;10509;46.476;7.134;2022-09-09T01:08:19;0.70;;;0.60;;
20142;SDS011;10509;46.476;7.134;2022-09-09T01:10:53;1.23;;;0.70;;
20142;SDS011;10509;46.476;7.134;2022-09-09T01:13:23;1.57;;;0.60;;
20142;SDS011;10509;46.476;7.134;2022-09-09T01:15:50;1.50;;;0.60;;
20142;SDS011;10509;46.476;7.134;2022-09-09T01:18:20;1.30;;;0.73;;
20142;SDS011;10509;46.476;7.134;2022-09-09T01:20:53;2.47;;;0.90;;
20142;SDS011;10509;46.476;7.134;2022-09-09T01:28:25;2.10;;;0.73;;
20142;SDS011;10509;46.476;7.134;2022-09-09T01:30:52;1.07;;;0.80;;
20142;SDS011;10509;46.476;7.134;2022-09-09T01:33:18;1.17;;;0.70;;
20142;SDS011;10509;46.476;7.134;2022-09-09T01:38:11;1.37;;;0.70;;
20142;SDS011;10509;46.476;7.134;2022-09-09T01:40:37;1.50;;;0.90;;
20142;SDS011;10509;46.476;7.134;2022-09-09T01:43:04;1.73;;;0.80;;
20142;SDS011;10509;46.476;7.134;2022-09-09T01:45:30;2.83;;;0.67;;
20142;SDS011;10509;46.476;7.134;2022-09-09T01:47:56;1.50;;;0.70;;
20142;SDS011;10509;46.476;7.134;2022-09-09T01:50:22;1.33;;;0.70;;
20142;SDS011;10509;46.476;7.134;2022-09-09T01:52:50;1.13;;;0.53;;
20142;SDS011;10509;46.476;7.134;2022-09-09T01:55:16;1.07;;;0.90;;
20142;SDS011;10509;46.476;7.134;2022-09-09T01:58:08;0.73;;;0.73;;
20142;SDS011;10509;46.476;7.134;2022-09-09T02:00:38;3.03;;;0.90;;
20142;SDS011;10509;46.476;7.134;2022-09-09T02:10:47;2.20;;;0.80;;
20142;SDS011;10509;46.476;7.134;2022-09-09T02:13:17;1.40;;;1.00;;
20142;SDS011;10509;46.476;7.134;2022-09-09T02:15:57;2.30;;;1.57;;
20142;SDS011;10509;46.476;7.134;2022-09-09T02:18:31;2.27;;;1.00;;
20142;SDS011;10509;46.476;7.134;2022-09-09T02:20:58;3.73;;;1.20;;
20142;SDS011;10509;46.476;7.134;2022-09-09T02:23:25;1.77;;;1.07;;
20142;SDS011;10509;46.476;7.134;2022-09-09T02:25:51;2.20;;;1.00;;
20142;SDS011;10509;46.476;7.134;2022-09-09T02:28:18;1.33;;;0.80;;
20142;SDS011;10509;46.476;7.134;2022-09-09T02:30:45;1.80;;;1.00;;
20142;SDS011;10509;46.476;7.134;2022-09-09T02:33:12;2.10;;;0.90;;
20142;SDS011;10509;46.476;7.134;2022-09-09T02:35:38;1.13;;;1.00;;
20142;SDS011;10509;46.476;7.134;2022-09-09T02:38:07;1.43;;;1.00;;
20142;SDS011;10509;46.476;7.134;2022-09-09T02:40:33;2.63;;;0.83;;
20142;SDS011;10509;46.476;7.134;2022-09-09T02:42:59;2.73;;;1.27;;
20142;SDS011;10509;46.476;7.134;2022-09-09T02:45:27;1.93;;;0.97;;
20142;SDS011;10509;46.476;7.134;2022-09-09T02:47:58;1.40;;;0.83;;
20142;SDS011;10509;46.476;7.134;2022-09-09T02:50:25;1.53;;;0.97;;
20142;SDS011;10509;46.476;7.134;2022-09-09T02:58:06;2.70;;;1.20;;
20142;SDS011;10509;46.476;7.134;2022-09-09T03:00:33;1.60;;;1.10;;
20142;SDS011;10509;46.476;7.134;2022-09-09T03:03:01;1.20;;;0.80;;
20142;SDS011;10509;46.476;7.134;2022-09-09T03:05:27;1.20;;;0.80;;
20142;SDS011;10509;46.476;7.134;2022-09-09T03:07:53;1.67;;;0.90;;
20142;SDS011;10509;46.476;7.134;2022-09-09T03:10:20;1.20;;;0.60;;
20142;SDS011;10509;46.476;7.134;2022-09-09T03:12:46;1.27;;;0.70;;
20142;SDS011;10509;46.476;7.134;2022-09-09T03:15:12;0.93;;;0.70;;
20142;SDS011;10509;46.476;7.134;2022-09-09T03:17:39;1.90;;;0.70;;
20142;SDS011;10509;46.476;7.134;2022-09-09T03:20:06;1.63;;;0.60;;
20142;SDS011;10509;46.476;7.134;2022-09-09T03:22:33;1.77;;;0.60;;
20142;SDS011;10509;46.476;7.134;2022-09-09T03:24:59;2.03;;;0.60;;
20142;SDS011;10509;46.476;7.134;2022-09-09T03:27:25;2.87;;;0.90;;
20142;SDS011;10509;46.476;7.134;2022-09-09T03:29:51;0.87;;;0.60;;
20142;SDS011;10509;46.476;7.134;2022-09-09T03:32:18;1.57;;;0.50;;
20142;SDS011;10509;46.476;7.134;2022-09-09T03:34:47;2.40;;;0.70;;
20142;SDS011;10509;46.476;7.134;2022-09-09T03:37:14;1.37;;;0.60;;
20142;SDS011;10509;46.476;7.134;2022-09-09T03:39:40;1.20;;;0.70;;
20142;SDS011;10509;46.476;7.134;2022-09-09T03:42:06;2.57;;;0.87;;
20142;SDS011;10509;46.476;7.134;2022-09-09T03:44:32;2.80;;;0.83;;
20142;SDS011;10509;46.476;7.134;2022-09-09T03:46:58;2.07;;;0.60;;
20142;SDS011;10509;46.476;7.134;2022-09-09T03:49:27;1.13;;;0.70;;
20142;SDS011;10509;46.476;7.134;2022-09-09T03:51:54;0.93;;;0.70;;
20142;SDS011;10509;46.476;7.134;2022-09-09T03:54:21;1.67;;;0.90;;
20142;SDS011;10509;46.476;7.134;2022-09-09T03:56:47;1.97;;;1.03;;
20142;SDS011;10509;46.476;7.134;2022-09-09T03:59:13;1.57;;;0.93;;
20142;SDS011;10509;46.476;7.134;2022-09-09T04:01:39;1.87;;;0.80;;
20142;SDS011;10509;46.476;7.134;2022-09-09T04:04:05;2.27;;;0.70;;
20142;SDS011;10509;46.476;7.134;2022-09-09T04:06:31;1.10;;;0.70;;
20142;SDS011;10509;46.476;7.134;2022-09-09T04:08:57;1.73;;;0.70;;
20142;SDS011;10509;46.476;7.134;2022-09-09T04:11:23;2.80;;;1.00;;
20142;SDS011;10509;46.476;7.134;2022-09-09T04:13:49;1.20;;;0.90;;
20142;SDS011;10509;46.476;7.134;2022-09-09T04:16:15;1.87;;;1.40;;
20142;SDS011;10509;46.476;7.134;2022-09-09T04:18:41;1.43;;;0.80;;
20142;SDS011;10509;46.476;7.134;2022-09-09T04:21:08;1.40;;;0.70;;
20142;SDS011;10509;46.476;7.134;2022-09-09T04:23:35;1.60;;;0.87;;
20142;SDS011;10509;46.476;7.134;2022-09-09T04:26:01;1.60;;;0.60;;
20142;SDS011;10509;46.476;7.134;2022-09-09T04:28:29;2.43;;;1.20;;
20142;SDS011;10509;46.476;7.134;2022-09-09T04:30:56;1.57;;;0.80;;
20142;SDS011;10509;46.476;7.134;2022-09-09T04:33:23;2.00;;;0.70;;
20142;SDS011;10509;46.476;7.134;2022-09-09T04:35:51;0.80;;;0.70;;
20142;SDS011;10509;46.476;7.134;2022-09-09T04:38:19;1.50;;;0.93;;
20142;SDS011;10509;46.476;7.134;2022-09-09T04:40:48;0.80;;;0.80;;
20142;SDS011;10509;46.476;7.134;2022-09-09T04:43:15;0.80;;;0.70;;
20142;SDS011;10509;46.476;7.134;2022-09-09T04:45:41;2.43;;;0.90;;
20142;SDS011;10509;46.476;7.134;2022-09-09T04:48:08;1.83;;;0.80;;
20142;SDS011;10509;46.476;7.134;2022-09-09T04:50:34;1.67;;;0.90;;
20142;SDS011;10509;46.476;7.134;2022-09-09T04:53:01;1.57;;;1.00;;
20142;SDS011;10509;46.476;7.134;2022-09-09T04:55:27;1.57;;;0.80;;
20142;SDS011;10509;46.476;7.134;2022-09-09T04:57:53;1.00;;;0.90;;
20142;SDS011;10509;46.476;7.134;2022-09-09T05:00:19;1.17;;;0.80;;
20142;SDS011;10509;46.476;7.134;2022-09-09T05:02:45;1.63;;;0.90;;
20142;SDS011;10509;46.476;7.134;2022-09-09T05:05:12;1.00;;;0.80;;
20142;SDS011;10509;46.476;7.134;2022-09-09T05:07:38;1.43;;;0.70;;
20142;SDS011;10509;46.476;7.134;2022-09-09T05:10:04;0.90;;;0.60;;
20142;SDS011;10509;46.476;7.134;2022-09-09T05:12:30;1.47;;;0.70;;
20142;SDS011;10509;46.476;7.134;2022-09-09T05:14:56;1.90;;;0.90;;
20142;SDS011;10509;46.476;7.134;2022-09-09T05:17:23;0.90;;;0.63;;
20142;SDS011;10509;46.476;7.134;2022-09-09T05:19:49;2.33;;;0.80;;
20142;SDS011;10509;46.476;7.134;2022-09-09T05:22:19;0.70;;;0.70;;
20142;SDS011;10509;46.476;7.134;2022-09-09T05:24:48;1.43;;;0.70;;
20142;SDS011;10509;46.476;7.134;2022-09-09T05:27:18;1.60;;;1.07;;
20142;SDS011;10509;46.476;7.134;2022-09-09T05:29:47;1.03;;;0.70;;
20142;SDS011;10509;46.476;7.134;2022-09-09T05:32:13;1.87;;;1.20;;
20142;SDS011;10509;46.476;7.134;2022-09-09T05:34:41;1.03;;;0.50;;
20142;SDS011;10509;46.476;7.134;2022-09-09T05:37:07;2.63;;;0.70;;
20142;SDS011;10509;46.476;7.134;2022-09-09T05:39:33;2.33;;;0.70;;
20142;SDS011;10509;46.476;7.134;2022-09-09T05:42:01;2.10;;;0.80;;
20142;SDS011;10509;46.476;7.134;2022-09-09T05:44:29;1.50;;;0.70;;
20142;SDS011;10509;46.476;7.134;2022-09-09T05:46:55;2.00;;;0.60;;
20142;SDS011;10509;46.476;7.134;2022-09-09T05:49:22;1.23;;;0.80;;
20142;SDS011;10509;46.476;7.134;2022-09-09T05:51:49;2.10;;;0.90;;
20142;SDS011;10509;46.476;7.134;2022-09-09T05:54:15;1.30;;;0.80;;
20142;SDS011;10509;46.476;7.134;2022-09-09T05:56:41;4.20;;;0.70;;
20142;SDS011;10509;46.476;7.134;2022-09-09T05:59:08;1.60;;;1.00;;
20142;SDS011;10509;46.476;7.134;2022-09-09T06:01:35;0.90;;;0.60;;
20142;SDS011;10509;46.476;7.134;2022-09-09T06:04:05;1.93;;;0.90;;
20142;SDS011;10509;46.476;7.134;2022-09-09T06:06:33;1.10;;;0.63;;
20142;SDS011;10509;46.476;7.134;2022-09-09T06:09:05;2.10;;;0.70;;
20142;SDS011;10509;46.476;7.134;2022-09-09T06:11:34;2.63;;;0.90;;
20142;SDS011;10509;46.476;7.134;2022-09-09T06:14:01;1.43;;;0.70;;
20142;SDS011;10509;46.476;7.134;2022-09-09T06:16:28;0.87;;;0.60;;
20142;SDS011;10509;46.476;7.134;2022-09-09T06:18:54;2.03;;;0.90;;
20142;SDS011;10509;46.476;7.134;2022-09-09T06:21:31;1.77;;;0.73;;
20142;SDS011;10509;46.476;7.134;2022-09-09T06:23:58;1.23;;;0.80;;
20142;SDS011;10509;46.476;7.134;2022-09-09T06:26:29;0.83;;;0.70;;
20142;SDS011;10509;46.476;7.134;2022-09-09T06:28:55;1.00;;;0.50;;
20142;SDS011;10509;46.476;7.134;2022-09-09T06:31:24;2.00;;;0.80;;
20142;SDS011;10509;46.476;7.134;2022-09-09T06:33:50;1.03;;;0.60;;
20142;SDS011;10509;46.476;7.134;2022-09-09T06:36:18;1.10;;;0.70;;
20142;SDS011;10509;46.476;7.134;2022-09-09T06:38:45;1.60;;;0.70;;
20142;SDS011;10509;46.476;7.134;2022-09-09T06:41:11;2.57;;;0.70;;
20142;SDS011;10509;46.476;7.134;2022-09-09T06:43:38;2.63;;;0.70;;
20142;SDS011;10509;46.476;7.134;2022-09-09T06:48:36;3.17;;;0.90;;
20142;SDS011;10509;46.476;7.134;2022-09-09T06:51:06;1.07;;;0.90;;
20142;SDS011;10509;46.476;7.134;2022-09-09T06:53:33;2.23;;;0.77;;
20142;SDS011;10509;46.476;7.134;2022-09-09T06:56:00;1.33;;;0.60;;
20142;SDS011;10509;46.476;7.134;2022-09-09T06:58:27;1.93;;;0.60;;
20142;SDS011;10509;46.476;7.134;2022-09-09T07:01:01;1.77;;;0.53;;
20142;SDS011;10509;46.476;7.134;2022-09-09T07:03:27;1.90;;;0.60;;
20142;SDS011;10509;46.476;7.134;2022-09-09T07:05:53;1.40;;;0.70;;
20142;SDS011;10509;46.476;7.134;2022-09-09T07:08:21;4.07;;;0.77;;
20142;SDS011;10509;46.476;7.134;2022-09-09T07:10:47;2.47;;;0.70;;
20142;SDS011;10509;46.476;7.134;2022-09-09T07:13:13;1.70;;;0.70;;
20142;SDS011;10509;46.476;7.134;2022-09-09T07:15:40;3.17;;;0.77;;
20142;SDS011;10509;46.476;7.134;2022-09-09T07:18:06;0.50;;;0.40;;
20142;SDS011;10509;46.476;7.134;2022-09-09T07:20:35;1.00;;;0.40;;
20142;SDS011;10509;46.476;7.134;2022-09-09T07:23:01;0.93;;;0.50;;
20142;SDS011;10509;46.476;7.134;2022-09-09T07:25:27;2.07;;;0.50;;
20142;SDS011;10509;46.476;7.134;2022-09-09T07:27:55;2.77;;;0.70;;
20142;SDS011;10509;46.476;7.134;2022-09-09T07:30:21;1.58;;;0.52;;
20142;SDS011;10509;46.476;7.134;2022-09-09T07:32:47;0.93;;;0.40;;
20142;SDS011;10509;46.476;7.134;2022-09-09T07:35:13;2.17;;;0.50;;
20142;SDS011;10509;46.476;7.134;2022-09-09T07:37:40;2.70;;;0.60;;
20142;SDS011;10509;46.476;7.134;2022-09-09T07:40:06;1.10;;;0.50;;
20142;SDS011;10509;46.476;7.134;2022-09-09T07:42:32;1.08;;;0.52;;
20142;SDS011;10509;46.476;7.134;2022-09-09T07:44:58;1.45;;;0.47;;
20142;SDS011;10509;46.476;7.134;2022-09-09T07:47:24;4.05;;;0.80;;
20142;SDS011;10509;46.476;7.134;2022-09-09T07:49:50;0.80;;;0.63;;
20142;SDS011;10509;46.476;7.134;2022-09-09T07:52:16;2.38;;;0.40;;
20142;SDS011;10509;46.476;7.134;2022-09-09T07:54:42;1.88;;;0.35;;
20142;SDS011;10509;46.476;7.134;2022-09-09T07:57:10;2.83;;;0.60;;
20142;SDS011;10509;46.476;7.134;2022-09-09T07:59:37;0.90;;;0.50;;
20142;SDS011;10509;46.476;7.134;2022-09-09T08:02:03;4.05;;;0.60;;
20142;SDS011;10509;46.476;7.134;2022-09-09T08:04:29;1.95;;;0.50;;
20142;SDS011;10509;46.476;7.134;2022-09-09T08:06:56;0.77;;;0.32;;
20142;SDS011;10509;46.476;7.134;2022-09-09T08:09:23;1.90;;;0.40;;
20142;SDS011;10509;46.476;7.134;2022-09-09T08:11:52;2.15;;;0.50;;
20142;SDS011;10509;46.476;7.134;2022-09-09T08:14:18;1.33;;;0.40;;
20142;SDS011;10509;46.476;7.134;2022-09-09T08:16:45;1.98;;;0.50;;
20142;SDS011;10509;46.476;7.134;2022-09-09T08:19:11;1.23;;;0.40;;
20142;SDS011;10509;46.476;7.134;2022-09-09T08:21:40;2.50;;;0.50;;
20142;SDS011;10509;46.476;7.134;2022-09-09T08:24:07;2.35;;;0.60;;
20142;SDS011;10509;46.476;7.134;2022-09-09T08:26:34;3.00;;;0.68;;
20142;SDS011;10509;46.476;7.134;2022-09-09T08:29:01;1.08;;;0.50;;
20142;SDS011;10509;46.476;7.134;2022-09-09T08:31:31;1.63;;;0.57;;
20142;SDS011;10509;46.476;7.134;2022-09-09T08:33:58;2.13;;;0.60;;
20142;SDS011;10509;46.476;7.134;2022-09-09T08:36:25;1.63;;;0.40;;
20142;SDS011;10509;46.476;7.134;2022-09-09T08:38:52;2.20;;;0.40;;
20142;SDS011;10509;46.476;7.134;2022-09-09T08:44:57;2.20;;;0.53;;
20142;SDS011;10509;46.476;7.134;2022-09-09T08:51:56;2.67;;;0.50;;
20142;SDS011;10509;46.476;7.134;2022-09-09T08:54:23;0.90;;;0.50;;
20142;SDS011;10509;46.476;7.134;2022-09-09T08:56:50;4.50;;;0.73;;
20142;SDS011;10509;46.476;7.134;2022-09-09T08:59:17;5.10;;;1.07;;
20142;SDS011;10509;46.476;7.134;2022-09-09T09:04:29;1.30;;;0.30;;
20142;SDS011;10509;46.476;7.134;2022-09-09T09:07:01;0.70;;;0.40;;
20142;SDS011;10509;46.476;7.134;2022-09-09T09:09:39;1.07;;;0.30;;
20142;SDS011;10509;46.476;7.134;2022-09-09T09:12:15;1.27;;;0.50;;
20142;SDS011;10509;46.476;7.134;2022-09-09T09:14:41;1.53;;;0.50;;
20142;SDS011;10509;46.476;7.134;2022-09-09T09:17:12;1.10;;;0.30;;
20142;SDS011;10509;46.476;7.134;2022-09-09T09:19:40;0.93;;;0.37;;
20142;SDS011;10509;46.476;7.134;2022-09-09T09:22:20;2.08;;;0.40;;
20142;SDS011;10509;46.476;7.134;2022-09-09T09:27:35;1.25;;;0.80;;
20142;SDS011;10509;46.476;7.134;2022-09-09T09:30:06;0.90;;;0.30;;
20142;SDS011;10509;46.476;7.134;2022-09-09T09:32:38;0.60;;;0.20;;
20142;SDS011;10509;46.476;7.134;2022-09-09T09:35:06;1.27;;;0.40;;
20142;SDS011;10509;46.476;7.134;2022-09-09T09:37:35;1.90;;;0.40;;
20142;SDS011;10509;46.476;7.134;2022-09-09T09:40:08;1.20;;;0.60;;
20142;SDS011;10509;46.476;7.134;2022-09-09T09:42:34;1.50;;;0.40;;
20142;SDS011;10509;46.476;7.134;2022-09-09T09:45:46;1.73;;;0.45;;
20142;SDS011;10509;46.476;7.134;2022-09-09T09:47:57;1.98;;;0.50;;
20142;SDS011;10509;46.476;7.134;2022-09-09T09:50:23;1.45;;;0.50;;
20142;SDS011;10509;46.476;7.134;2022-09-09T09:53:00;0.93;;;0.40;;
20142;SDS011;10509;46.476;7.134;2022-09-09T09:55:26;1.13;;;0.55;;
20142;SDS011;10509;46.476;7.134;2022-09-09T09:58:00;2.40;;;0.60;;
20142;SDS011;10509;46.476;7.134;2022-09-09T10:00:26;1.63;;;0.50;;
20142;SDS011;10509;46.476;7.134;2022-09-09T10:02:52;2.00;;;0.50;;
20142;SDS011;10509;46.476;7.134;2022-09-09T10:05:22;1.55;;;0.55;;
20142;SDS011;10509;46.476;7.134;2022-09-09T10:10:58;2.13;;;0.50;;
20142;SDS011;10509;46.476;7.134;2022-09-09T10:21:27;1.20;;;0.40;;
20142;SDS011;10509;46.476;7.134;2022-09-09T10:24:05;1.10;;;0.40;;
20142;SDS011;10509;46.476;7.134;2022-09-09T10:26:52;0.50;;;0.23;;
20142;SDS011;10509;46.476;7.134;2022-09-09T10:29:40;1.77;;;0.50;;
20142;SDS011;10509;46.476;7.134;2022-09-09T10:32:28;0.90;;;0.40;;
20142;SDS011;10509;46.476;7.134;2022-09-09T10:35:01;0.88;;;0.40;;
20142;SDS011;10509;46.476;7.134;2022-09-09T10:37:36;1.38;;;0.40;;
20142;SDS011;10509;46.476;7.134;2022-09-09T10:40:14;0.65;;;0.30;;
20142;SDS011;10509;46.476;7.134;2022-09-09T10:42:41;1.77;;;0.55;;
20142;SDS011;10509;46.476;7.134;2022-09-09T10:45:15;1.10;;;0.30;;
20142;SDS011;10509;46.476;7.134;2022-09-09T10:50:23;2.28;;;0.50;;
20142;SDS011;10509;46.476;7.134;2022-09-09T10:55:22;1.20;;;0.40;;
20142;SDS011;10509;46.476;7.134;2022-09-09T10:57:51;0.93;;;0.30;;
20142;SDS011;10509;46.476;7.134;2022-09-09T11:00:19;1.42;;;0.43;;
20142;SDS011;10509;46.476;7.134;2022-09-09T11:02:47;1.92;;;0.60;;
20142;SDS011;10509;46.476;7.134;2022-09-09T11:05:17;0.98;;;0.40;;
20142;SDS011;10509;46.476;7.134;2022-09-09T11:08:18;1.02;;;0.40;;
20142;SDS011;10509;46.476;7.134;2022-09-09T11:10:44;1.58;;;0.57;;
20142;SDS011;10509;46.476;7.134;2022-09-09T11:13:22;1.13;;;0.40;;
20142;SDS011;10509;46.476;7.134;2022-09-09T11:15:52;1.33;;;0.40;;
20142;SDS011;10509;46.476;7.134;2022-09-09T11:18:21;0.50;;;0.30;;
20142;SDS011;10509;46.476;7.134;2022-09-09T11:20:48;1.00;;;0.40;;
20142;SDS011;10509;46.476;7.134;2022-09-09T11:23:23;1.15;;;0.30;;
20142;SDS011;10509;46.476;7.134;2022-09-09T11:25:57;1.33;;;0.30;;
20142;SDS011;10509;46.476;7.134;2022-09-09T11:31:33;1.70;;;0.60;;
20142;SDS011;10509;46.476;7.134;2022-09-09T11:39:34;0.90;;;0.40;;
20142;SDS011;10509;46.476;7.134;2022-09-09T11:44:37;0.80;;;0.35;;
20142;SDS011;10509;46.476;7.134;2022-09-09T11:47:03;1.08;;;0.40;;
20142;SDS011;10509;46.476;7.134;2022-09-09T11:49:40;1.05;;;0.30;;
20142;SDS011;10509;46.476;7.134;2022-09-09T11:52:36;3.17;;;0.40;;
20142;SDS011;10509;46.476;7.134;2022-09-09T11:54:56;2.85;;;0.60;;
20142;SDS011;10509;46.476;7.134;2022-09-09T11:57:30;1.67;;;0.40;;
20142;SDS011;10509;46.476;7.134;2022-09-09T11:59:58;1.02;;;0.30;;
20142;SDS011;10509;46.476;7.134;2022-09-09T12:02:25;0.77;;;0.30;;
20142;SDS011;10509;46.476;7.134;2022-09-09T12:12:48;1.33;;;0.40;;
20142;SDS011;10509;46.476;7.134;2022-09-09T12:15:22;2.15;;;0.40;;
20142;SDS011;10509;46.476;7.134;2022-09-09T12:17:50;1.50;;;0.40;;
20142;SDS011;10509;46.476;7.134;2022-09-09T12:27:51;0.90;;;0.30;;
20142;SDS011;10509;46.476;7.134;2022-09-09T12:30:22;1.75;;;0.50;;
20142;SDS011;10509;46.476;7.134;2022-09-09T12:33:00;1.85;;;0.47;;
20142;SDS011;10509;46.476;7.134;2022-09-09T12:35:27;0.80;;;0.35;;
20142;SDS011;10509;46.476;7.134;2022-09-09T12:37:55;1.25;;;0.40;;
20142;SDS011;10509;46.476;7.134;2022-09-09T12:40:26;0.63;;;0.40;;
20142;SDS011;10509;46.476;7.134;2022-09-09T12:42:53;1.23;;;0.52;;
20142;SDS011;10509;46.476;7.134;2022-09-09T12:45:24;1.75;;;0.40;;
20142;SDS011;10509;46.476;7.134;2022-09-09T12:48:09;1.10;;;0.40;;
20142;SDS011;10509;46.476;7.134;2022-09-09T12:50:46;1.15;;;0.30;;
20142;SDS011;10509;46.476;7.134;2022-09-09T12:53:24;1.05;;;0.40;;
20142;SDS011;10509;46.476;7.134;2022-09-09T12:56:02;2.92;;;0.40;;
20142;SDS011;10509;46.476;7.134;2022-09-09T12:58:29;1.13;;;0.30;;
20142;SDS011;10509;46.476;7.134;2022-09-09T13:00:58;0.82;;;0.20;;
20142;SDS011;10509;46.476;7.134;2022-09-09T13:03:25;1.08;;;0.30;;
20142;SDS011;10509;46.476;7.134;2022-09-09T13:05:51;1.52;;;0.43;;
20142;SDS011;10509;46.476;7.134;2022-09-09T13:08:18;0.65;;;0.20;;
20142;SDS011;10509;46.476;7.134;2022-09-09T13:13:16;0.65;;;0.30;;
20142;SDS011;10509;46.476;7.134;2022-09-09T13:15:53;1.05;;;0.30;;
20142;SDS011;10509;46.476;7.134;2022-09-09T13:18:22;1.63;;;0.65;;
20142;SDS011;10509;46.476;7.134;2022-09-09T13:20:48;0.68;;;0.20;;
20142;SDS011;10509;46.476;7.134;2022-09-09T13:23:15;1.13;;;0.30;;
20142;SDS011;10509;46.476;7.134;2022-09-09T13:25:51;1.00;;;0.38;;
20142;SDS011;10509;46.476;7.134;2022-09-09T13:28:20;0.95;;;0.30;;
20142;SDS011;10509;46.476;7.134;2022-09-09T13:30:54;0.57;;;0.20;;
20142;SDS011;10509;46.476;7.134;2022-09-09T13:33:24;2.30;;;0.50;;
20142;SDS011;10509;46.476;7.134;2022-09-09T13:35:58;0.47;;;0.20;;
20142;SDS011;10509;46.476;7.134;2022-09-09T13:38:25;0.93;;;0.30;;
20142;SDS011;10509;46.476;7.134;2022-09-09T13:40:53;2.88;;;0.52;;
20142;SDS011;10509;46.476;7.134;2022-09-09T13:43:21;1.15;;;0.30;;
20142;SDS011;10509;46.476;7.134;2022-09-09T13:45:54;0.75;;;0.30;;
20142;SDS011;10509;46.476;7.134;2022-09-09T13:48:21;1.15;;;0.40;;
20142;SDS011;10509;46.476;7.134;2022-09-09T13:51:01;0.95;;;0.40;;
20142;SDS011;10509;46.476;7.134;2022-09-09T13:53:30;1.17;;;0.20;;
20142;SDS011;10509;46.476;7.134;2022-09-09T13:55:56;0.60;;;0.20;;
20142;SDS011;10509;46.476;7.134;2022-09-09T13:58:23;1.13;;;0.40;;
20142;SDS011;10509;46.476;7.134;2022-09-09T14:00:50;2.22;;;0.52;;
20142;SDS011;10509;46.476;7.134;2022-09-09T14:03:16;1.85;;;0.50;;
20142;SDS011;10509;46.476;7.134;2022-09-09T14:05:43;1.23;;;0.30;;
20142;SDS011;10509;46.476;7.134;2022-09-09T14:08:11;0.60;;;0.30;;
20142;SDS011;10509;46.476;7.134;2022-09-09T14:10:40;0.50;;;0.30;;
20142;SDS011;10509;46.476;7.134;2022-09-09T14:13:06;1.10;;;0.30;;
20142;SDS011;10509;46.476;7.134;2022-09-09T14:15:33;0.95;;;0.22;;
20142;SDS011;10509;46.476;7.134;2022-09-09T14:17:59;2.35;;;0.50;;
20142;SDS011;10509;46.476;7.134;2022-09-09T14:20:25;1.27;;;0.47;;
20142;SDS011;10509;46.476;7.134;2022-09-09T14:22:51;1.80;;;0.50;;
20142;SDS011;10509;46.476;7.134;2022-09-09T14:25:18;1.45;;;0.40;;
20142;SDS011;10509;46.476;7.134;2022-09-09T14:27:44;1.05;;;0.50;;
20142;SDS011;10509;46.476;7.134;2022-09-09T14:30:11;0.52;;;0.30;;
20142;SDS011;10509;46.476;7.134;2022-09-09T14:32:37;1.48;;;0.40;;
20142;SDS011;10509;46.476;7.134;2022-09-09T14:35:03;0.93;;;0.50;;
20142;SDS011;10509;46.476;7.134;2022-09-09T14:37:29;1.50;;;0.30;;
20142;SDS011;10509;46.476;7.134;2022-09-09T14:39:56;1.33;;;0.40;;
20142;SDS011;10509;46.476;7.134;2022-09-09T14:42:22;0.70;;;0.20;;
20142;SDS011;10509;46.476;7.134;2022-09-09T14:44:48;2.17;;;0.30;;
20142;SDS011;10509;46.476;7.134;2022-09-09T14:47:14;1.95;;;0.40;;
20142;SDS011;10509;46.476;7.134;2022-09-09T14:49:40;1.00;;;0.30;;
20142;SDS011;10509;46.476;7.134;2022-09-09T14:52:06;1.17;;;0.30;;
20142;SDS011;10509;46.476;7.134;2022-09-09T14:54:34;1.08;;;0.20;;
20142;SDS011;10509;46.476;7.134;2022-09-09T14:57:00;1.23;;;0.40;;
20142;SDS011;10509;46.476;7.134;2022-09-09T14:59:26;1.55;;;0.40;;
20142;SDS011;10509;46.476;7.134;2022-09-09T15:01:52;0.88;;;0.30;;
20142;SDS011;10509;46.476;7.134;2022-09-09T15:04:18;0.82;;;0.20;;
20142;SDS011;10509;46.476;7.134;2022-09-09T15:06:45;2.28;;;0.30;;
20142;SDS011;10509;46.476;7.134;2022-09-09T15:09:13;1.10;;;0.43;;
20142;SDS011;10509;46.476;7.134;2022-09-09T15:11:39;1.17;;;0.30;;
20142;SDS011;10509;46.476;7.134;2022-09-09T15:14:06;1.67;;;0.30;;
20142;SDS011;10509;46.476;7.134;2022-09-09T15:16:32;0.70;;;0.40;;
20142;SDS011;10509;46.476;7.134;2022-09-09T15:18:59;1.02;;;0.40;;
20142;SDS011;10509;46.476;7.134;2022-09-09T15:21:26;1.40;;;0.30;;
20142;SDS011;10509;46.476;7.134;2022-09-09T15:23:53;1.05;;;0.30;;
20142;SDS011;10509;46.476;7.134;2022-09-09T15:26:19;0.80;;;0.40;;
20142;SDS011;10509;46.476;7.134;2022-09-09T15:28:46;0.75;;;0.30;;
20142;SDS011;10509;46.476;7.134;2022-09-09T15:31:22;0.85;;;0.30;;
20142;SDS011;10509;46.476;7.134;2022-09-09T15:33:49;1.27;;;0.32;;
20142;SDS011;10509;46.476;7.134;2022-09-09T15:36:18;0.35;;;0.20;;
20142;SDS011;10509;46.476;7.134;2022-09-09T15:38:45;1.15;;;0.38;;
20142;SDS011;10509;46.476;7.134;2022-09-09T15:41:14;1.02;;;0.50;;
20142;SDS011;10509;46.476;7.134;2022-09-09T15:43:42;2.30;;;0.45;;
20142;SDS011;10509;46.476;7.134;2022-09-09T15:49:36;2.53;;;0.50;;
20142;SDS011;10509;46.476;7.134;2022-09-09T15:51:44;2.30;;;0.45;;
20142;SDS011;10509;46.476;7.134;2022-09-09T15:54:16;1.13;;;0.50;;
20142;SDS011;10509;46.476;7.134;2022-09-09T15:56:43;1.70;;;0.50;;
20142;SDS011;10509;46.476;7.134;2022-09-09T15:59:10;0.80;;;0.28;;
20142;SDS011;10509;46.476;7.134;2022-09-09T16:01:36;1.85;;;0.32;;
20142;SDS011;10509;46.476;7.134;2022-09-09T16:04:04;0.60;;;0.30;;
20142;SDS011;10509;46.476;7.134;2022-09-09T16:06:31;1.20;;;0.30;;
20142;SDS011;10509;46.476;7.134;2022-09-09T16:08:58;1.17;;;0.38;;
20142;SDS011;10509;46.476;7.134;2022-09-09T16:11:27;1.15;;;0.30;;
20142;SDS011;10509;46.476;7.134;2022-09-09T16:13:54;0.90;;;0.35;;
20142;SDS011;10509;46.476;7.134;2022-09-09T16:16:21;1.48;;;0.40;;
20142;SDS011;10509;46.476;7.134;2022-09-09T16:18:50;1.23;;;0.40;;
20142;SDS011;10509;46.476;7.134;2022-09-09T16:21:21;0.77;;;0.20;;
20142;SDS011;10509;46.476;7.134;2022-09-09T16:23:49;0.73;;;0.38;;
20142;SDS011;10509;46.476;7.134;2022-09-09T16:26:16;1.70;;;0.40;;
20142;SDS011;10509;46.476;7.134;2022-09-09T16:28:42;2.35;;;0.38;;
20142;SDS011;10509;46.476;7.134;2022-09-09T16:31:09;0.45;;;0.20;;
20142;SDS011;10509;46.476;7.134;2022-09-09T16:33:36;3.00;;;0.40;;
20142;SDS011;10509;46.476;7.134;2022-09-09T16:36:06;1.00;;;0.40;;
20142;SDS011;10509;46.476;7.134;2022-09-09T16:38:33;0.80;;;0.30;;
20142;SDS011;10509;46.476;7.134;2022-09-09T16:41:00;1.30;;;0.50;;
20142;SDS011;10509;46.476;7.134;2022-09-09T16:43:27;0.82;;;0.30;;
20142;SDS011;10509;46.476;7.134;2022-09-09T16:45:53;1.27;;;0.60;;
20142;SDS011;10509;46.476;7.134;2022-09-09T16:48:19;0.70;;;0.30;;
20142;SDS011;10509;46.476;7.134;2022-09-09T16:50:45;1.05;;;0.30;;